sensor_id;sensor_type;location;lat;lon;timestamp;temperature;humidity
35363;DHT22;21463;47.480;8.214;2024-02-21T00:00:18;20.70;35.10
35363;DHT22;21463;47.480;8.214;2024-02-21T00:01:25;20.70;35.10
35363;DHT22;21463;47.480;8.214;2024-02-21T00:02:28;20.70;35.10
35363;DHT22;21463;47.480;8.214;2024-02-21T00:03:32;20.70;35.10
35363;DHT22;21463;47.480;8.214;2024-02-21T00:04:35;20.80;35.10
35363;DHT22;21463;47.480;8.214;2024-02-21T00:05:41;20.70;35.10
35363;DHT22;21463;47.480;8.214;2024-02-21T00:06:45;20.70;35.10
35363;DHT22;21463;47.480;8.214;2024-02-21T00:07:49;20.70;35.10
35363;DHT22;21463;47.480;8.214;2024-02-21T00:08:52;20.70;35.10
35363;DHT22;21463;47.480;8.214;2024-02-21T00:09:55;20.60;35.00
35363;DHT22;21463;47.480;8.214;2024-02-21T00:11:03;20.70;35.10
35363;DHT22;21463;47.480;8.214;2024-02-21T00:12:21;20.70;35.10
35363;DHT22;21463;47.480;8.214;2024-02-21T00:13:25;20.70;35.10
35363;DHT22;21463;47.480;8.214;2024-02-21T00:14:29;20.70;35.10
35363;DHT22;21463;47.480;8.214;2024-02-21T00:15:37;20.70;35.10
35363;DHT22;21463;47.480;8.214;2024-02-21T00:16:43;20.70;35.10
35363;DHT22;21463;47.480;8.214;2024-02-21T00:17:46;20.70;35.10
35363;DHT22;21463;47.480;8.214;2024-02-21T00:18:50;20.70;35.10
35363;DHT22;21463;47.480;8.214;2024-02-21T00:19:55;20.70;35.10
35363;DHT22;21463;47.480;8.214;2024-02-21T00:20:59;20.70;35.70
35363;DHT22;21463;47.480;8.214;2024-02-21T00:22:05;20.70;35.10
35363;DHT22;21463;47.480;8.214;2024-02-21T00:23:09;20.70;35.10
35363;DHT22;21463;47.480;8.214;2024-02-21T00:24:13;20.70;35.10
35363;DHT22;21463;47.480;8.214;2024-02-21T00:25:16;20.70;35.10
35363;DHT22;21463;47.480;8.214;2024-02-21T00:26:21;20.70;35.10
35363;DHT22;21463;47.480;8.214;2024-02-21T00:27:25;20.70;35.20
35363;DHT22;21463;47.480;8.214;2024-02-21T00:28:28;20.70;35.20
35363;DHT22;21463;47.480;8.214;2024-02-21T00:29:33;20.70;35.10
35363;DHT22;21463;47.480;8.214;2024-02-21T00:30:38;20.70;35.20
35363;DHT22;21463;47.480;8.214;2024-02-21T00:31:43;20.70;35.10
35363;DHT22;21463;47.480;8.214;2024-02-21T00:32:53;20.70;35.20
35363;DHT22;21463;47.480;8.214;2024-02-21T00:34:02;20.70;35.20
35363;DHT22;21463;47.480;8.214;2024-02-21T00:35:07;20.70;35.20
35363;DHT22;21463;47.480;8.214;2024-02-21T00:36:12;20.70;35.20
35363;DHT22;21463;47.480;8.214;2024-02-21T00:37:19;20.70;35.20
35363;DHT22;21463;47.480;8.214;2024-02-21T00:38:23;20.70;35.20
35363;DHT22;21463;47.480;8.214;2024-02-21T00:39:27;20.70;35.20
35363;DHT22;21463;47.480;8.214;2024-02-21T00:40:30;20.70;35.20
35363;DHT22;21463;47.480;8.214;2024-02-21T00:41:33;20.80;35.20
35363;DHT22;21463;47.480;8.214;2024-02-21T00:42:37;20.70;35.20
35363;DHT22;21463;47.480;8.214;2024-02-21T00:43:44;20.70;35.80
35363;DHT22;21463;47.480;8.214;2024-02-21T00:44:50;20.70;35.20
35363;DHT22;21463;47.480;8.214;2024-02-21T00:45:59;20.70;35.20
35363;DHT22;21463;47.480;8.214;2024-02-21T00:47:02;20.70;35.20
35363;DHT22;21463;47.480;8.214;2024-02-21T00:48:07;20.70;35.20
35363;DHT22;21463;47.480;8.214;2024-02-21T00:49:17;20.80;35.30
35363;DHT22;21463;47.480;8.214;2024-02-21T00:50:21;20.70;35.20
35363;DHT22;21463;47.480;8.214;2024-02-21T00:51:25;20.70;35.20
35363;DHT22;21463;47.480;8.214;2024-02-21T00:52:31;20.70;35.20
35363;DHT22;21463;47.480;8.214;2024-02-21T00:53:35;20.70;35.20
35363;DHT22;21463;47.480;8.214;2024-02-21T00:54:41;20.70;35.20
35363;DHT22;21463;47.480;8.214;2024-02-21T00:55:54;20.70;35.20
35363;DHT22;21463;47.480;8.214;2024-02-21T00:57:02;20.70;35.20
35363;DHT22;21463;47.480;8.214;2024-02-21T00:58:05;20.70;35.20
35363;DHT22;21463;47.480;8.214;2024-02-21T00:59:08;20.70;35.20
35363;DHT22;21463;47.480;8.214;2024-02-21T01:00:13;20.70;35.20
35363;DHT22;21463;47.480;8.214;2024-02-21T01:01:24;20.70;35.20
35363;DHT22;21463;47.480;8.214;2024-02-21T01:02:28;20.70;35.20
35363;DHT22;21463;47.480;8.214;2024-02-21T01:03:34;20.70;35.20
35363;DHT22;21463;47.480;8.214;2024-02-21T01:04:39;20.70;35.20
35363;DHT22;21463;47.480;8.214;2024-02-21T01:05:45;20.70;35.20
35363;DHT22;21463;47.480;8.214;2024-02-21T01:06:48;20.70;35.20
35363;DHT22;21463;47.480;8.214;2024-02-21T01:07:52;20.70;35.20
35363;DHT22;21463;47.480;8.214;2024-02-21T01:08:55;20.80;35.30
35363;DHT22;21463;47.480;8.214;2024-02-21T01:10:00;20.70;35.20
35363;DHT22;21463;47.480;8.214;2024-02-21T01:11:05;20.80;35.30
35363;DHT22;21463;47.480;8.214;2024-02-21T01:12:08;20.70;35.30
35363;DHT22;21463;47.480;8.214;2024-02-21T01:13:13;20.70;35.20
35363;DHT22;21463;47.480;8.214;2024-02-21T01:14:17;20.70;35.20
35363;DHT22;21463;47.480;8.214;2024-02-21T01:15:21;20.80;35.30
35363;DHT22;21463;47.480;8.214;2024-02-21T01:16:25;20.80;35.30
35363;DHT22;21463;47.480;8.214;2024-02-21T01:17:29;20.70;35.20
35363;DHT22;21463;47.480;8.214;2024-02-21T01:18:34;20.70;35.30
35363;DHT22;21463;47.480;8.214;2024-02-21T01:19:37;20.70;35.20
35363;DHT22;21463;47.480;8.214;2024-02-21T01:20:41;20.70;35.30
35363;DHT22;21463;47.480;8.214;2024-02-21T01:21:45;20.70;35.20
35363;DHT22;21463;47.480;8.214;2024-02-21T01:22:52;20.70;35.30
35363;DHT22;21463;47.480;8.214;2024-02-21T01:23:57;20.80;35.30
35363;DHT22;21463;47.480;8.214;2024-02-21T01:25:01;20.70;35.30
35363;DHT22;21463;47.480;8.214;2024-02-21T01:26:06;20.70;35.30
35363;DHT22;21463;47.480;8.214;2024-02-21T01:27:13;20.70;35.30
35363;DHT22;21463;47.480;8.214;2024-02-21T01:28:16;20.70;35.30
35363;DHT22;21463;47.480;8.214;2024-02-21T01:29:21;20.70;35.30
35363;DHT22;21463;47.480;8.214;2024-02-21T01:30:25;20.80;35.40
35363;DHT22;21463;47.480;8.214;2024-02-21T01:31:28;20.70;35.30
35363;DHT22;21463;47.480;8.214;2024-02-21T01:32:31;20.70;35.30
35363;DHT22;21463;47.480;8.214;2024-02-21T01:33:35;20.70;35.30
35363;DHT22;21463;47.480;8.214;2024-02-21T01:34:42;20.70;35.30
35363;DHT22;21463;47.480;8.214;2024-02-21T01:35:46;20.70;35.30
35363;DHT22;21463;47.480;8.214;2024-02-21T01:36:50;20.70;35.30
35363;DHT22;21463;47.480;8.214;2024-02-21T01:37:54;20.70;35.30
35363;DHT22;21463;47.480;8.214;2024-02-21T01:39:01;20.70;35.30
35363;DHT22;21463;47.480;8.214;2024-02-21T01:40:05;20.70;35.30
35363;DHT22;21463;47.480;8.214;2024-02-21T01:41:09;20.70;35.30
35363;DHT22;21463;47.480;8.214;2024-02-21T01:42:13;20.80;35.30
35363;DHT22;21463;47.480;8.214;2024-02-21T01:43:20;20.70;35.30
35363;DHT22;21463;47.480;8.214;2024-02-21T01:44:26;20.70;35.30
35363;DHT22;21463;47.480;8.214;2024-02-21T01:45:33;20.70;35.30
35363;DHT22;21463;47.480;8.214;2024-02-21T01:46:36;20.70;35.30
35363;DHT22;21463;47.480;8.214;2024-02-21T01:47:43;20.70;35.30
35363;DHT22;21463;47.480;8.214;2024-02-21T01:48:48;20.70;35.30
35363;DHT22;21463;47.480;8.214;2024-02-21T01:49:55;20.80;35.40
35363;DHT22;21463;47.480;8.214;2024-02-21T01:50:58;20.80;35.40
35363;DHT22;21463;47.480;8.214;2024-02-21T01:52:04;20.70;35.30
35363;DHT22;21463;47.480;8.214;2024-02-21T01:53:12;20.70;35.30
35363;DHT22;21463;47.480;8.214;2024-02-21T01:54:20;20.70;35.30
35363;DHT22;21463;47.480;8.214;2024-02-21T01:55:23;20.80;35.40
35363;DHT22;21463;47.480;8.214;2024-02-21T01:56:31;20.70;35.30
35363;DHT22;21463;47.480;8.214;2024-02-21T01:57:35;20.70;35.30
35363;DHT22;21463;47.480;8.214;2024-02-21T01:58:42;20.70;35.40
35363;DHT22;21463;47.480;8.214;2024-02-21T01:59:47;20.70;35.30
35363;DHT22;21463;47.480;8.214;2024-02-21T02:00:52;20.70;35.30
35363;DHT22;21463;47.480;8.214;2024-02-21T02:01:58;20.70;35.30
35363;DHT22;21463;47.480;8.214;2024-02-21T02:03:05;20.70;35.30
35363;DHT22;21463;47.480;8.214;2024-02-21T02:04:10;20.70;35.40
35363;DHT22;21463;47.480;8.214;2024-02-21T02:05:17;20.70;35.40
35363;DHT22;21463;47.480;8.214;2024-02-21T02:06:25;20.70;35.30
35363;DHT22;21463;47.480;8.214;2024-02-21T02:07:31;20.70;35.30
35363;DHT22;21463;47.480;8.214;2024-02-21T02:08:41;20.70;35.30
35363;DHT22;21463;47.480;8.214;2024-02-21T02:09:45;20.70;35.40
35363;DHT22;21463;47.480;8.214;2024-02-21T02:10:49;20.70;35.30
35363;DHT22;21463;47.480;8.214;2024-02-21T02:11:57;20.70;35.30
35363;DHT22;21463;47.480;8.214;2024-02-21T02:13:02;20.70;35.30
35363;DHT22;21463;47.480;8.214;2024-02-21T02:14:06;20.70;35.40
35363;DHT22;21463;47.480;8.214;2024-02-21T02:15:09;20.70;35.40
35363;DHT22;21463;47.480;8.214;2024-02-21T02:16:13;20.70;35.40
35363;DHT22;21463;47.480;8.214;2024-02-21T02:17:19;20.70;35.40
35363;DHT22;21463;47.480;8.214;2024-02-21T02:18:26;20.70;35.40
35363;DHT22;21463;47.480;8.214;2024-02-21T02:19:29;20.70;35.40
35363;DHT22;21463;47.480;8.214;2024-02-21T02:20:35;20.70;35.40
35363;DHT22;21463;47.480;8.214;2024-02-21T02:21:44;20.70;35.40
35363;DHT22;21463;47.480;8.214;2024-02-21T02:22:49;20.70;35.40
35363;DHT22;21463;47.480;8.214;2024-02-21T02:23:53;20.70;35.40
35363;DHT22;21463;47.480;8.214;2024-02-21T02:24:57;20.70;35.40
35363;DHT22;21463;47.480;8.214;2024-02-21T02:26:02;20.70;35.40
35363;DHT22;21463;47.480;8.214;2024-02-21T02:27:10;20.70;35.40
35363;DHT22;21463;47.480;8.214;2024-02-21T02:28:17;20.70;35.40
35363;DHT22;21463;47.480;8.214;2024-02-21T02:29:24;20.70;35.40
35363;DHT22;21463;47.480;8.214;2024-02-21T02:30:31;20.70;35.40
35363;DHT22;21463;47.480;8.214;2024-02-21T02:31:35;20.70;35.40
35363;DHT22;21463;47.480;8.214;2024-02-21T02:32:44;20.70;35.40
35363;DHT22;21463;47.480;8.214;2024-02-21T02:33:50;20.70;35.40
35363;DHT22;21463;47.480;8.214;2024-02-21T02:34:53;20.70;35.40
35363;DHT22;21463;47.480;8.214;2024-02-21T02:35:57;20.70;36.00
35363;DHT22;21463;47.480;8.214;2024-02-21T02:37:04;20.70;35.40
35363;DHT22;21463;47.480;8.214;2024-02-21T02:38:06;20.70;35.40
35363;DHT22;21463;47.480;8.214;2024-02-21T02:39:10;20.70;35.40
35363;DHT22;21463;47.480;8.214;2024-02-21T02:40:18;20.70;35.50
35363;DHT22;21463;47.480;8.214;2024-02-21T02:41:21;20.70;35.40
35363;DHT22;21463;47.480;8.214;2024-02-21T02:42:24;20.70;35.50
35363;DHT22;21463;47.480;8.214;2024-02-21T02:43:28;20.70;35.40
35363;DHT22;21463;47.480;8.214;2024-02-21T02:44:31;20.70;35.50
35363;DHT22;21463;47.480;8.214;2024-02-21T02:45:35;20.70;35.50
35363;DHT22;21463;47.480;8.214;2024-02-21T02:46:40;20.70;35.50
35363;DHT22;21463;47.480;8.214;2024-02-21T02:47:44;20.70;35.40
35363;DHT22;21463;47.480;8.214;2024-02-21T02:48:49;20.70;35.50
35363;DHT22;21463;47.480;8.214;2024-02-21T02:49:52;20.70;35.50
35363;DHT22;21463;47.480;8.214;2024-02-21T02:50:57;20.80;35.50
35363;DHT22;21463;47.480;8.214;2024-02-21T02:52:02;20.70;35.50
35363;DHT22;21463;47.480;8.214;2024-02-21T02:53:06;20.70;35.50
35363;DHT22;21463;47.480;8.214;2024-02-21T02:54:11;20.70;35.50
35363;DHT22;21463;47.480;8.214;2024-02-21T02:55:16;20.70;35.50
35363;DHT22;21463;47.480;8.214;2024-02-21T02:56:20;20.70;35.50
35363;DHT22;21463;47.480;8.214;2024-02-21T02:57:39;20.70;35.50
35363;DHT22;21463;47.480;8.214;2024-02-21T02:58:44;20.70;35.50
35363;DHT22;21463;47.480;8.214;2024-02-21T02:59:49;20.70;35.50
35363;DHT22;21463;47.480;8.214;2024-02-21T03:00:52;20.70;35.50
35363;DHT22;21463;47.480;8.214;2024-02-21T03:01:58;20.70;35.50
35363;DHT22;21463;47.480;8.214;2024-02-21T03:03:02;20.70;35.50
35363;DHT22;21463;47.480;8.214;2024-02-21T03:04:09;20.70;35.50
35363;DHT22;21463;47.480;8.214;2024-02-21T03:05:20;20.70;35.50
35363;DHT22;21463;47.480;8.214;2024-02-21T03:06:23;20.70;36.10
35363;DHT22;21463;47.480;8.214;2024-02-21T03:07:30;20.70;35.50
35363;DHT22;21463;47.480;8.214;2024-02-21T03:08:37;20.70;35.50
35363;DHT22;21463;47.480;8.214;2024-02-21T03:09:49;20.70;35.50
35363;DHT22;21463;47.480;8.214;2024-02-21T03:10:52;20.80;35.60
35363;DHT22;21463;47.480;8.214;2024-02-21T03:11:57;20.80;35.60
35363;DHT22;21463;47.480;8.214;2024-02-21T03:13:06;20.60;35.50
35363;DHT22;21463;47.480;8.214;2024-02-21T03:14:09;20.70;35.50
35363;DHT22;21463;47.480;8.214;2024-02-21T03:15:15;20.70;35.50
35363;DHT22;21463;47.480;8.214;2024-02-21T03:16:20;20.70;35.50
35363;DHT22;21463;47.480;8.214;2024-02-21T03:17:25;20.70;35.50
35363;DHT22;21463;47.480;8.214;2024-02-21T03:18:29;20.70;35.50
35363;DHT22;21463;47.480;8.214;2024-02-21T03:19:33;20.80;35.60
35363;DHT22;21463;47.480;8.214;2024-02-21T03:20:41;20.70;35.50
35363;DHT22;21463;47.480;8.214;2024-02-21T03:21:49;20.80;35.60
35363;DHT22;21463;47.480;8.214;2024-02-21T03:22:52;20.70;35.60
35363;DHT22;21463;47.480;8.214;2024-02-21T03:23:59;20.70;35.50
35363;DHT22;21463;47.480;8.214;2024-02-21T03:25:04;20.80;35.60
35363;DHT22;21463;47.480;8.214;2024-02-21T03:26:11;20.70;35.50
35363;DHT22;21463;47.480;8.214;2024-02-21T03:27:15;20.70;35.60
35363;DHT22;21463;47.480;8.214;2024-02-21T03:28:18;20.70;35.60
35363;DHT22;21463;47.480;8.214;2024-02-21T03:29:22;20.70;35.60
35363;DHT22;21463;47.480;8.214;2024-02-21T03:30:27;20.70;35.50
35363;DHT22;21463;47.480;8.214;2024-02-21T03:31:31;20.70;35.60
35363;DHT22;21463;47.480;8.214;2024-02-21T03:32:36;20.70;35.50
35363;DHT22;21463;47.480;8.214;2024-02-21T03:33:42;20.70;35.50
35363;DHT22;21463;47.480;8.214;2024-02-21T03:34:47;20.70;35.60
35363;DHT22;21463;47.480;8.214;2024-02-21T03:35:50;20.70;35.60
35363;DHT22;21463;47.480;8.214;2024-02-21T03:36:56;20.70;35.60
35363;DHT22;21463;47.480;8.214;2024-02-21T03:38:02;20.70;35.60
35363;DHT22;21463;47.480;8.214;2024-02-21T03:39:05;20.70;35.60
35363;DHT22;21463;47.480;8.214;2024-02-21T03:40:18;20.80;35.60
35363;DHT22;21463;47.480;8.214;2024-02-21T03:41:21;20.70;35.60
35363;DHT22;21463;47.480;8.214;2024-02-21T03:42:27;20.70;35.60
35363;DHT22;21463;47.480;8.214;2024-02-21T03:43:32;20.70;35.60
35363;DHT22;21463;47.480;8.214;2024-02-21T03:44:37;20.70;35.60
35363;DHT22;21463;47.480;8.214;2024-02-21T03:45:41;20.70;35.60
35363;DHT22;21463;47.480;8.214;2024-02-21T03:46:45;20.70;35.60
35363;DHT22;21463;47.480;8.214;2024-02-21T03:47:49;20.70;35.60
35363;DHT22;21463;47.480;8.214;2024-02-21T03:48:52;20.70;35.60
35363;DHT22;21463;47.480;8.214;2024-02-21T03:49:57;20.70;35.60
35363;DHT22;21463;47.480;8.214;2024-02-21T03:51:04;20.70;35.60
35363;DHT22;21463;47.480;8.214;2024-02-21T03:52:10;20.70;35.60
35363;DHT22;21463;47.480;8.214;2024-02-21T03:53:14;20.70;35.60
35363;DHT22;21463;47.480;8.214;2024-02-21T03:54:22;20.70;35.60
35363;DHT22;21463;47.480;8.214;2024-02-21T03:55:25;20.70;35.60
35363;DHT22;21463;47.480;8.214;2024-02-21T03:56:31;20.70;35.60
35363;DHT22;21463;47.480;8.214;2024-02-21T03:57:42;20.70;35.60
35363;DHT22;21463;47.480;8.214;2024-02-21T03:58:47;20.70;35.60
35363;DHT22;21463;47.480;8.214;2024-02-21T03:59:52;20.70;35.60
35363;DHT22;21463;47.480;8.214;2024-02-21T04:00:56;20.70;35.60
35363;DHT22;21463;47.480;8.214;2024-02-21T04:01:59;20.70;35.60
35363;DHT22;21463;47.480;8.214;2024-02-21T04:03:03;20.70;35.60
35363;DHT22;21463;47.480;8.214;2024-02-21T04:04:07;20.70;35.60
35363;DHT22;21463;47.480;8.214;2024-02-21T04:05:10;20.70;36.20
35363;DHT22;21463;47.480;8.214;2024-02-21T04:06:15;20.80;35.70
35363;DHT22;21463;47.480;8.214;2024-02-21T04:07:34;20.70;35.60
35363;DHT22;21463;47.480;8.214;2024-02-21T04:08:40;20.70;35.60
35363;DHT22;21463;47.480;8.214;2024-02-21T04:09:46;20.70;35.70
35363;DHT22;21463;47.480;8.214;2024-02-21T04:10:57;20.70;35.60
35363;DHT22;21463;47.480;8.214;2024-02-21T04:12:02;20.70;35.60
35363;DHT22;21463;47.480;8.214;2024-02-21T04:13:07;20.70;35.60
35363;DHT22;21463;47.480;8.214;2024-02-21T04:14:10;20.70;35.60
35363;DHT22;21463;47.480;8.214;2024-02-21T04:15:17;20.70;35.60
35363;DHT22;21463;47.480;8.214;2024-02-21T04:16:25;20.70;35.60
35363;DHT22;21463;47.480;8.214;2024-02-21T04:17:31;20.70;35.60
35363;DHT22;21463;47.480;8.214;2024-02-21T04:18:36;20.70;35.70
35363;DHT22;21463;47.480;8.214;2024-02-21T04:19:42;20.70;35.60
35363;DHT22;21463;47.480;8.214;2024-02-21T04:20:48;20.80;35.70
35363;DHT22;21463;47.480;8.214;2024-02-21T04:21:50;20.70;35.70
35363;DHT22;21463;47.480;8.214;2024-02-21T04:22:54;20.70;35.70
35363;DHT22;21463;47.480;8.214;2024-02-21T04:24:00;20.70;35.70
35363;DHT22;21463;47.480;8.214;2024-02-21T04:25:04;20.70;35.60
35363;DHT22;21463;47.480;8.214;2024-02-21T04:26:09;20.70;35.70
35363;DHT22;21463;47.480;8.214;2024-02-21T04:27:13;20.70;35.70
35363;DHT22;21463;47.480;8.214;2024-02-21T04:28:20;20.70;35.70
35363;DHT22;21463;47.480;8.214;2024-02-21T04:29:25;20.70;35.70
35363;DHT22;21463;47.480;8.214;2024-02-21T04:30:30;20.80;35.70
35363;DHT22;21463;47.480;8.214;2024-02-21T04:31:34;20.70;35.70
35363;DHT22;21463;47.480;8.214;2024-02-21T04:32:38;20.70;35.70
35363;DHT22;21463;47.480;8.214;2024-02-21T04:33:43;20.80;35.70
35363;DHT22;21463;47.480;8.214;2024-02-21T04:34:50;20.70;35.70
35363;DHT22;21463;47.480;8.214;2024-02-21T04:35:57;20.70;35.70
35363;DHT22;21463;47.480;8.214;2024-02-21T04:37:01;20.80;35.70
35363;DHT22;21463;47.480;8.214;2024-02-21T04:38:05;20.70;35.70
35363;DHT22;21463;47.480;8.214;2024-02-21T04:39:11;20.70;35.70
35363;DHT22;21463;47.480;8.214;2024-02-21T04:40:20;20.70;35.70
35363;DHT22;21463;47.480;8.214;2024-02-21T04:41:25;20.70;35.70
35363;DHT22;21463;47.480;8.214;2024-02-21T04:42:29;20.70;35.70
35363;DHT22;21463;47.480;8.214;2024-02-21T04:43:34;20.80;35.70
35363;DHT22;21463;47.480;8.214;2024-02-21T04:44:40;20.70;35.70
35363;DHT22;21463;47.480;8.214;2024-02-21T04:45:44;20.70;35.70
35363;DHT22;21463;47.480;8.214;2024-02-21T04:46:48;20.60;35.60
35363;DHT22;21463;47.480;8.214;2024-02-21T04:47:53;20.70;35.70
35363;DHT22;21463;47.480;8.214;2024-02-21T04:49:00;20.70;35.70
35363;DHT22;21463;47.480;8.214;2024-02-21T04:50:05;20.70;35.70
35363;DHT22;21463;47.480;8.214;2024-02-21T04:51:26;20.70;35.70
35363;DHT22;21463;47.480;8.214;2024-02-21T04:52:29;20.70;35.70
35363;DHT22;21463;47.480;8.214;2024-02-21T04:53:35;20.70;35.70
35363;DHT22;21463;47.480;8.214;2024-02-21T04:54:40;20.70;35.70
35363;DHT22;21463;47.480;8.214;2024-02-21T04:55:47;20.70;35.70
35363;DHT22;21463;47.480;8.214;2024-02-21T04:56:52;20.70;35.70
35363;DHT22;21463;47.480;8.214;2024-02-21T04:57:57;20.70;35.70
35363;DHT22;21463;47.480;8.214;2024-02-21T04:59:02;20.70;35.70
35363;DHT22;21463;47.480;8.214;2024-02-21T05:00:08;20.60;35.60
35363;DHT22;21463;47.480;8.214;2024-02-21T05:01:14;20.70;35.70
35363;DHT22;21463;47.480;8.214;2024-02-21T05:02:20;20.70;35.70
35363;DHT22;21463;47.480;8.214;2024-02-21T05:03:27;20.70;35.70
35363;DHT22;21463;47.480;8.214;2024-02-21T05:04:32;20.70;35.70
35363;DHT22;21463;47.480;8.214;2024-02-21T05:05:41;20.70;35.70
35363;DHT22;21463;47.480;8.214;2024-02-21T05:06:48;20.70;35.70
35363;DHT22;21463;47.480;8.214;2024-02-21T05:07:56;20.70;35.70
35363;DHT22;21463;47.480;8.214;2024-02-21T05:09:01;20.70;35.70
35363;DHT22;21463;47.480;8.214;2024-02-21T05:10:04;20.70;35.70
35363;DHT22;21463;47.480;8.214;2024-02-21T05:11:28;20.70;35.70
35363;DHT22;21463;47.480;8.214;2024-02-21T05:12:34;20.70;35.60
35363;DHT22;21463;47.480;8.214;2024-02-21T05:13:37;20.70;35.70
35363;DHT22;21463;47.480;8.214;2024-02-21T05:14:41;20.70;35.70
35363;DHT22;21463;47.480;8.214;2024-02-21T05:15:48;20.80;35.80
35363;DHT22;21463;47.480;8.214;2024-02-21T05:16:54;20.70;35.70
35363;DHT22;21463;47.480;8.214;2024-02-21T05:18:00;20.70;35.70
35363;DHT22;21463;47.480;8.214;2024-02-21T05:19:06;20.70;35.70
35363;DHT22;21463;47.480;8.214;2024-02-21T05:20:11;20.70;35.70
35363;DHT22;21463;47.480;8.214;2024-02-21T05:21:16;20.70;35.70
35363;DHT22;21463;47.480;8.214;2024-02-21T05:22:22;20.70;35.70
35363;DHT22;21463;47.480;8.214;2024-02-21T05:23:28;20.70;35.70
35363;DHT22;21463;47.480;8.214;2024-02-21T05:24:41;20.70;35.70
35363;DHT22;21463;47.480;8.214;2024-02-21T05:25:45;20.70;35.70
35363;DHT22;21463;47.480;8.214;2024-02-21T05:26:49;20.70;35.70
35363;DHT22;21463;47.480;8.214;2024-02-21T05:27:53;20.70;35.70
35363;DHT22;21463;47.480;8.214;2024-02-21T05:28:57;20.70;35.70
35363;DHT22;21463;47.480;8.214;2024-02-21T05:30:04;20.80;35.70
35363;DHT22;21463;47.480;8.214;2024-02-21T05:31:13;20.70;35.70
35363;DHT22;21463;47.480;8.214;2024-02-21T05:32:19;20.70;35.70
35363;DHT22;21463;47.480;8.214;2024-02-21T05:33:23;20.70;35.70
35363;DHT22;21463;47.480;8.214;2024-02-21T05:34:30;20.70;35.70
35363;DHT22;21463;47.480;8.214;2024-02-21T05:35:40;20.70;35.70
35363;DHT22;21463;47.480;8.214;2024-02-21T05:36:45;20.70;35.70
35363;DHT22;21463;47.480;8.214;2024-02-21T05:37:50;20.70;35.70
35363;DHT22;21463;47.480;8.214;2024-02-21T05:38:57;20.70;35.70
35363;DHT22;21463;47.480;8.214;2024-02-21T05:40:04;20.70;35.70
35363;DHT22;21463;47.480;8.214;2024-02-21T05:41:08;20.70;35.70
35363;DHT22;21463;47.480;8.214;2024-02-21T05:42:14;20.70;35.70
35363;DHT22;21463;47.480;8.214;2024-02-21T05:43:20;20.70;35.70
35363;DHT22;21463;47.480;8.214;2024-02-21T05:44:29;20.70;35.70
35363;DHT22;21463;47.480;8.214;2024-02-21T05:45:34;20.70;35.80
35363;DHT22;21463;47.480;8.214;2024-02-21T05:46:37;20.80;35.80
35363;DHT22;21463;47.480;8.214;2024-02-21T05:47:45;20.70;35.70
35363;DHT22;21463;47.480;8.214;2024-02-21T05:48:53;20.70;35.70
35363;DHT22;21463;47.480;8.214;2024-02-21T05:50:01;20.70;35.70
35363;DHT22;21463;47.480;8.214;2024-02-21T05:51:05;20.70;35.70
35363;DHT22;21463;47.480;8.214;2024-02-21T05:52:10;20.70;35.70
35363;DHT22;21463;47.480;8.214;2024-02-21T05:53:14;20.70;35.70
35363;DHT22;21463;47.480;8.214;2024-02-21T05:54:19;20.80;35.80
35363;DHT22;21463;47.480;8.214;2024-02-21T05:55:23;20.70;35.80
35363;DHT22;21463;47.480;8.214;2024-02-21T05:56:27;20.70;35.80
35363;DHT22;21463;47.480;8.214;2024-02-21T05:57:31;20.70;35.70
35363;DHT22;21463;47.480;8.214;2024-02-21T05:58:37;20.70;35.80
35363;DHT22;21463;47.480;8.214;2024-02-21T05:59:41;20.70;35.80
35363;DHT22;21463;47.480;8.214;2024-02-21T06:00:51;20.70;35.80
35363;DHT22;21463;47.480;8.214;2024-02-21T06:01:58;20.80;35.90
35363;DHT22;21463;47.480;8.214;2024-02-21T06:03:03;20.70;35.80
35363;DHT22;21463;47.480;8.214;2024-02-21T06:04:07;20.70;35.80
35363;DHT22;21463;47.480;8.214;2024-02-21T06:05:14;20.80;35.90
35363;DHT22;21463;47.480;8.214;2024-02-21T06:06:18;20.70;35.80
35363;DHT22;21463;47.480;8.214;2024-02-21T06:07:21;20.70;35.80
35363;DHT22;21463;47.480;8.214;2024-02-21T06:08:24;20.70;35.80
35363;DHT22;21463;47.480;8.214;2024-02-21T06:09:29;20.70;35.80
35363;DHT22;21463;47.480;8.214;2024-02-21T06:10:37;20.70;35.80
35363;DHT22;21463;47.480;8.214;2024-02-21T06:11:41;20.70;35.80
35363;DHT22;21463;47.480;8.214;2024-02-21T06:12:48;20.70;35.80
35363;DHT22;21463;47.480;8.214;2024-02-21T06:13:55;20.70;35.80
35363;DHT22;21463;47.480;8.214;2024-02-21T06:14:58;20.70;35.80
35363;DHT22;21463;47.480;8.214;2024-02-21T06:16:03;20.70;35.90
35363;DHT22;21463;47.480;8.214;2024-02-21T06:17:11;20.70;35.90
35363;DHT22;21463;47.480;8.214;2024-02-21T06:18:17;20.70;35.90
35363;DHT22;21463;47.480;8.214;2024-02-21T06:19:21;20.70;35.90
35363;DHT22;21463;47.480;8.214;2024-02-21T06:20:27;20.70;35.90
35363;DHT22;21463;47.480;8.214;2024-02-21T06:21:35;20.70;35.90
35363;DHT22;21463;47.480;8.214;2024-02-21T06:22:43;20.70;35.90
35363;DHT22;21463;47.480;8.214;2024-02-21T06:23:47;20.70;35.90
35363;DHT22;21463;47.480;8.214;2024-02-21T06:24:51;20.70;35.90
35363;DHT22;21463;47.480;8.214;2024-02-21T06:25:57;20.70;35.90
35363;DHT22;21463;47.480;8.214;2024-02-21T06:27:00;20.70;35.90
35363;DHT22;21463;47.480;8.214;2024-02-21T06:28:15;20.70;35.90
35363;DHT22;21463;47.480;8.214;2024-02-21T06:29:22;20.70;35.90
35363;DHT22;21463;47.480;8.214;2024-02-21T06:30:26;20.80;36.00
35363;DHT22;21463;47.480;8.214;2024-02-21T06:31:31;20.70;36.50
35363;DHT22;21463;47.480;8.214;2024-02-21T06:32:36;20.70;35.90
35363;DHT22;21463;47.480;8.214;2024-02-21T06:33:41;20.70;35.90
35363;DHT22;21463;47.480;8.214;2024-02-21T06:34:45;20.70;35.90
35363;DHT22;21463;47.480;8.214;2024-02-21T06:35:54;20.80;36.00
35363;DHT22;21463;47.480;8.214;2024-02-21T06:36:59;20.70;35.90
35363;DHT22;21463;47.480;8.214;2024-02-21T06:38:06;20.70;35.90
35363;DHT22;21463;47.480;8.214;2024-02-21T06:39:16;20.70;35.90
35363;DHT22;21463;47.480;8.214;2024-02-21T06:40:21;20.70;35.90
35363;DHT22;21463;47.480;8.214;2024-02-21T06:41:32;20.80;36.00
35363;DHT22;21463;47.480;8.214;2024-02-21T06:42:39;20.70;36.50
35363;DHT22;21463;47.480;8.214;2024-02-21T06:43:43;20.80;36.00
35363;DHT22;21463;47.480;8.214;2024-02-21T06:44:49;20.70;36.00
35363;DHT22;21463;47.480;8.214;2024-02-21T06:45:52;20.70;36.00
35363;DHT22;21463;47.480;8.214;2024-02-21T06:46:57;20.70;36.00
35363;DHT22;21463;47.480;8.214;2024-02-21T06:48:12;20.70;36.00
35363;DHT22;21463;47.480;8.214;2024-02-21T06:49:18;20.70;36.10
35363;DHT22;21463;47.480;8.214;2024-02-21T06:50:24;20.70;36.00
35363;DHT22;21463;47.480;8.214;2024-02-21T06:51:28;20.70;36.00
35363;DHT22;21463;47.480;8.214;2024-02-21T06:52:35;20.70;36.00
35363;DHT22;21463;47.480;8.214;2024-02-21T06:53:41;20.70;36.00